Time;durP1;ratioP1;P1;durP2;ratioP2;P2;SDS_P1;SDS_P2;PMS_P1;PMS_P2;Temp;Humidity;BMP_temperature;BMP_pressure;BME280_temperature;BME280_humidity;BME280_pressure;Samples;Min_cycle;Max_cycle;Signal;HPM_P1;HPM_P2
2022/10/09 10:29:42;;;;;;;8.30;2.60;;;;;;;13.78;100.00;99381.97;2626142;27;20652;-78
2022/10/09 10:31:03;;;;;;;5.38;2.25;;;;;;;14.08;100.00;99381.19;2625673;28;20062;-84
2022/10/09 10:32:26;;;;;;;5.03;2.40;;;;;;;14.22;100.00;99372.91;2625685;28;20048;-81
2022/10/09 10:33:43;;;;;;;4.60;1.92;;;;;;;14.32;100.00;99377.03;2625785;28;20510;-80
2022/10/09 10:35:05;;;;;;;3.33;2.05;;;;;;;14.38;100.00;99370.69;2625621;28;20900;-80
2022/10/09 10:36:24;;;;;;;9.23;2.20;;;;;;;14.38;100.00;99362.78;2625338;28;20505;-80
2022/10/09 10:37:54;;;;;;;6.40;1.90;;;;;;;14.17;100.00;99369.53;2625516;28;20102;-80
2022/10/09 10:39:25;;;;;;;6.65;1.90;;;;;;;14.48;100.00;99364.25;2625614;28;20142;-80
2022/10/09 10:41:01;;;;;;;5.28;1.73;;;;;;;14.64;100.00;99366.44;2625786;28;20053;-80
2022/10/09 10:42:23;;;;;;;6.60;1.30;;;;;;;14.70;100.00;99363.63;2625474;28;20063;-79
2022/10/09 10:43:50;;;;;;;8.65;1.60;;;;;;;14.82;100.00;99368.56;2625969;28;20105;-80
2022/10/09 10:45:13;;;;;;;42.10;5.10;;;;;;;14.93;100.00;99367.34;2625625;28;20048;-77
2022/10/09 10:46:38;;;;;;;5.22;1.52;;;;;;;14.88;100.00;99361.38;2625664;28;20494;-82
2022/10/09 10:47:56;;;;;;;3.03;1.60;;;;;;;15.02;100.00;99359.16;2625805;28;20063;-79
2022/10/09 10:49:18;;;;;;;2.15;1.25;;;;;;;14.96;100.00;99359.38;2624891;28;20085;-82
2022/10/09 10:50:41;;;;;;;3.75;1.42;;;;;;;14.80;100.00;99354.53;2624880;28;20123;-81
2022/10/09 10:52:11;;;;;;;2.70;1.25;;;;;;;14.87;100.00;99351.72;2625065;28;20079;-78
2022/10/09 10:53:48;;;;;;;4.15;1.95;;;;;;;14.65;100.00;99349.69;2623650;28;20094;-83
2022/10/09 10:55:12;;;;;;;4.45;1.30;;;;;;;14.81;100.00;99353.66;2624008;28;20460;-78
2022/10/09 10:56:37;;;;;;;4.70;1.10;;;;;;;14.69;97.94;99344.31;2624707;28;20174;-79
2022/10/09 10:58:01;;;;;;;17.15;2.15;;;;;;;15.01;95.00;99346.88;2624274;28;20342;-81
2022/10/09 10:59:26;;;;;;;3.88;1.10;;;;;;;14.68;95.81;99342.56;2624555;28;20083;-80
2022/10/09 11:00:52;;;;;;;2.80;1.17;;;;;;;14.34;94.40;99340.97;2624090;28;20048;-79
2022/10/09 11:02:28;;;;;;;4.45;1.23;;;;;;;14.93;92.60;99335.72;2624563;28;20098;-80
2022/10/09 11:04:20;;;;;;;4.68;1.10;;;;;;;15.27;90.06;99342.56;2624579;28;20053;-79
2022/10/09 11:05:41;;;;;;;4.53;1.02;;;;;;;14.91;88.25;99335.78;2625717;28;20087;-79
2022/10/09 11:07:19;;;;;;;2.08;0.88;;;;;;;14.76;86.78;99328.34;2625408;28;20050;-79
2022/10/09 11:08:51;;;;;;;3.15;1.00;;;;;;;14.70;87.26;99337.28;2625821;28;20056;-79
2022/10/09 11:10:35;;;;;;;11.27;1.40;;;;;;;15.26;83.50;99327.63;2625564;28;20411;-80
2022/10/09 11:12:10;;;;;;;5.55;1.15;;;;;;;15.44;80.98;99330.56;2625323;28;20075;-81
2022/10/09 11:13:33;;;;;;;4.55;1.23;;;;;;;15.34;78.06;99324.75;2625333;28;20894;-80
2022/10/09 11:15:29;;;;;;;6.70;1.30;;;;;;;15.70;81.62;99323.53;2625117;28;20052;-79
2022/10/09 11:17:10;;;;;;;6.20;1.20;;;;;;;15.75;75.22;99321.59;2625042;28;20055;-78
2022/10/09 11:18:29;;;;;;;3.30;1.00;;;;;;;15.52;70.21;99315.34;2625510;28;20083;-80
2022/10/09 11:20:16;;;;;;;4.03;0.90;;;;;;;15.71;69.91;99314.69;2625451;28;20079;-80
2022/10/09 11:21:55;;;;;;;3.95;0.90;;;;;;;15.35;73.73;99322.03;2625484;28;20099;-78
2022/10/09 11:23:24;;;;;;;1.70;1.00;;;;;;;15.73;73.02;99310.22;2625189;28;20080;-80
2022/10/09 11:25:02;;;;;;;4.57;1.05;;;;;;;16.00;71.66;99310.19;2623560;28;20063;-79
2022/10/09 11:26:18;;;;;;;4.07;1.30;;;;;;;15.41;71.36;99309.56;2619463;28;20423;-81
2022/10/09 11:27:56;;;;;;;5.38;1.38;;;;;;;15.85;70.37;99306.28;2624704;28;20048;-80
2022/10/09 11:29:17;;;;;;;7.70;1.40;;;;;;;15.47;71.31;99304.06;2624644;28;20518;-80
2022/10/09 11:30:51;;;;;;;5.22;1.50;;;;;;;15.66;70.50;99299.88;2624916;28;20407;-78
2022/10/09 11:32:16;;;;;;;2.03;0.93;;;;;;;16.30;68.66;99302.03;2625107;28;20041;-78
2022/10/09 11:33:43;;;;;;;2.35;1.00;;;;;;;16.08;68.52;99292.28;2625197;28;20079;-79
2022/10/09 11:35:14;;;;;;;3.28;1.30;;;;;;;16.32;65.83;99300.19;2625317;28;20048;-80
2022/10/09 11:36:36;;;;;;;3.65;1.40;;;;;;;16.54;64.30;99300.22;2625141;28;20899;-79
2022/10/09 11:38:19;;;;;;;2.78;0.95;;;;;;;16.87;61.15;99286.59;2624912;28;20466;-79
2022/10/09 11:39:37;;;;;;;3.50;1.05;;;;;;;17.10;60.39;99290.13;2624464;28;20044;-79
2022/10/09 11:40:53;;;;;;;5.15;1.20;;;;;;;16.93;55.75;99289.00;2618608;28;20080;-80
2022/10/09 11:42:13;;;;;;;5.32;1.42;;;;;;;17.41;58.21;99291.50;2617959;28;20495;-80
2022/10/09 11:43:56;;;;;;;26.73;3.35;;;;;;;17.83;57.31;99287.03;2618192;28;20044;-80
2022/10/09 11:45:28;;;;;;;10.35;1.80;;;;;;;18.13;57.65;99283.97;2617725;28;20044;-79
2022/10/09 11:47:19;;;;;;;11.65;1.70;;;;;;;18.00;51.94;99275.69;2617532;28;20482;-79
2022/10/09 11:48:47;;;;;;;4.32;1.48;;;;;;;18.17;50.90;99274.97;2616833;28;20075;-78
2022/10/09 11:50:25;;;;;;;2.30;1.10;;;;;;;17.90;51.16;99272.59;2617224;28;20070;-78
2022/10/09 11:51:57;;;;;;;4.30;1.67;;;;;;;17.79;52.27;99275.69;2617595;28;20909;-78
2022/10/09 11:53:19;;;;;;;3.67;1.23;;;;;;;17.92;51.99;99269.88;2617344;28;20040;-78
2022/10/09 11:54:35;;;;;;;6.47;1.90;;;;;;;18.28;52.63;99270.94;2617373;28;20052;-78
2022/10/09 11:56:07;;;;;;;4.72;1.25;;;;;;;18.47;51.55;99261.19;2617881;28;20052;-78
2022/10/09 11:57:29;;;;;;;3.05;1.23;;;;;;;18.47;52.44;99261.19;2617997;28;20066;-77
2022/10/09 11:58:58;;;;;;;2.53;1.30;;;;;;;18.21;53.51;99263.28;2617970;28;20052;-78
2022/10/09 12:00:14;;;;;;;5.53;1.40;;;;;;;18.48;52.70;99256.72;2618039;28;20049;-78
2022/10/09 12:01:33;;;;;;;5.03;1.38;;;;;;;18.54;52.09;99260.88;2617095;28;20044;-78
2022/10/09 12:02:58;;;;;;;5.22;1.23;;;;;;;18.81;49.95;99256.06;2617695;28;20503;-78
2022/10/09 12:04:15;;;;;;;927.35;109.75;;;;;;;18.83;52.29;99250.66;2618157;28;20110;-78
2022/10/09 12:05:40;;;;;;;65.90;9.73;;;;;;;18.75;49.53;99245.72;2617754;28;20056;-77
2022/10/09 12:07:06;;;;;;;5.78;1.75;;;;;;;18.72;47.35;99241.47;2617738;28;20589;-82
2022/10/09 12:08:26;;;;;;;8.77;2.13;;;;;;;18.82;50.07;99243.63;2616967;28;20446;-78
2022/10/09 12:09:46;;;;;;;4.68;1.60;;;;;;;19.02;51.33;99238.25;2617138;28;20564;-79
2022/10/09 12:11:17;;;;;;;6.47;1.52;;;;;;;19.38;50.75;99233.78;2617749;28;20059;-78
2022/10/09 12:12:33;;;;;;;5.80;1.48;;;;;;;19.01;50.27;99228.56;2617697;28;20487;-77
2022/10/09 12:13:55;;;;;;;280.17;25.95;;;;;;;19.55;46.41;99227.56;2617144;28;20053;-78
2022/10/09 12:15:37;;;;;;;6.95;1.80;;;;;;;19.64;44.62;99228.91;2617769;28;20574;-79
2022/10/09 12:16:53;;;;;;;6.55;1.40;;;;;;;19.88;43.47;99225.88;2617771;28;20052;-79
2022/10/09 12:18:29;;;;;;;4.60;1.35;;;;;;;19.65;43.75;99216.47;2617557;28;20507;-78
2022/10/09 12:19:45;;;;;;;3.53;1.13;;;;;;;18.76;45.24;99226.22;2617512;28;20040;-77
2022/10/09 12:21:17;;;;;;;8.70;1.88;;;;;;;18.91;44.68;99214.84;2617472;28;20059;-77
2022/10/09 12:22:36;;;;;;;93.70;9.35;;;;;;;18.52;46.33;99212.38;2617551;28;20048;-77
2022/10/09 12:23:52;;;;;;;7.57;1.45;;;;;;;18.85;46.39;99214.28;2617282;28;20132;-77
2022/10/09 12:25:22;;;;;;;7.95;1.50;;;;;;;18.69;46.51;99216.88;2617619;28;20052;-78
2022/10/09 12:26:39;;;;;;;7.80;1.67;;;;;;;18.58;45.73;99217.41;2617699;28;20084;-77
2022/10/09 12:27:57;;;;;;;29.42;3.33;;;;;;;18.96;44.18;99205.81;2617397;28;20512;-78
2022/10/09 12:29:22;;;;;;;4.95;1.55;;;;;;;18.87;44.60;99213.28;2616950;28;20057;-80
2022/10/09 12:30:40;;;;;;;1.92;1.00;;;;;;;19.08;45.05;99202.56;2617556;28;20048;-79
2022/10/09 12:32:02;;;;;;;3.90;0.93;;;;;;;19.10;42.17;99202.47;2617293;28;20048;-77
2022/10/09 12:33:38;;;;;;;3.22;1.27;;;;;;;18.82;47.15;99206.50;2617516;28;20118;-81
2022/10/09 12:34:55;;;;;;;3.10;1.20;;;;;;;19.19;45.31;99200.22;2617722;28;20140;-78
2022/10/09 12:36:14;;;;;;;2.53;0.90;;;;;;;19.37;43.46;99196.69;2617588;28;20079;-80
2022/10/09 12:37:33;;;;;;;2.50;0.80;;;;;;;19.29;44.27;99190.00;2617429;28;20079;-77
2022/10/09 12:38:49;;;;;;;3.08;1.13;;;;;;;18.28;44.82;99192.28;2617178;28;20465;-79
2022/10/09 12:40:14;;;;;;;3.40;1.10;;;;;;;18.73;43.32;99195.44;2616821;28;20048;-78
2022/10/09 12:41:33;;;;;;;2.13;0.90;;;;;;;19.01;43.58;99191.41;2617452;28;20091;-78
2022/10/09 12:42:51;;;;;;;15.85;1.27;;;;;;;18.59;44.01;99189.94;2616945;28;20461;-79
2022/10/09 12:44:27;;;;;;;4.28;1.27;;;;;;;19.35;44.70;99183.50;2617353;28;20048;-79
2022/10/09 12:45:45;;;;;;;4.40;0.90;;;;;;;19.57;42.65;99180.56;2617667;28;20484;-80
2022/10/09 12:47:05;;;;;;;4.78;1.05;;;;;;;19.38;43.40;99174.50;2617415;28;20114;-80
2022/10/09 12:48:24;;;;;;;4.78;1.27;;;;;;;17.60;47.42;99183.00;2617540;28;20082;-79
2022/10/09 12:49:40;;;;;;;5.05;1.30;;;;;;;18.47;45.93;99184.31;2616955;28;20056;-81
2022/10/09 12:50:56;;;;;;;4.95;1.10;;;;;;;18.06;45.95;99176.53;2617607;28;20479;-81
2022/10/09 12:52:15;;;;;;;7.82;1.27;;;;;;;17.63;48.12;99176.69;2616557;28;20072;-81
2022/10/09 12:53:30;;;;;;;7.07;1.58;;;;;;;18.14;45.61;99179.66;2617500;28;20048;-80
2022/10/09 12:54:46;;;;;;;3.90;1.52;;;;;;;18.18;44.41;99168.00;2616802;28;20475;-80
2022/10/09 12:56:10;;;;;;;4.35;1.60;;;;;;;18.25;44.28;99173.00;2617460;28;20048;-83
2022/10/09 12:57:26;;;;;;;3.22;1.40;;;;;;;18.80;42.64;99171.22;2617215;28;20090;-80
2022/10/09 12:58:42;;;;;;;4.57;1.30;;;;;;;18.90;41.86;99162.72;2617301;28;20174;-79
2022/10/09 13:00:01;;;;;;;4.88;1.52;;;;;;;19.19;42.18;99167.50;2614325;28;20106;-79
2022/10/09 13:01:18;;;;;;;4.03;1.60;;;;;;;18.97;41.85;99168.56;2611633;28;20059;-79
2022/10/09 13:02:33;;;;;;;7.57;1.80;;;;;;;19.25;41.25;99167.19;2615973;28;20048;-78
2022/10/09 13:03:58;;;;;;;5.90;1.65;;;;;;;19.48;40.52;99163.31;2616703;28;20056;-79
2022/10/09 13:05:14;;;;;;;3.15;1.48;;;;;;;19.94;39.89;99163.59;2617081;28;20083;-79
2022/10/09 13:06:44;;;;;;;2.15;1.20;;;;;;;19.78;41.05;99159.09;2615946;28;20080;-79
2022/10/09 13:08:00;;;;;;;4.43;1.15;;;;;;;19.09;41.49;99158.31;2616005;28;20056;-79
2022/10/09 13:09:31;;;;;;;5.13;1.40;;;;;;;18.60;43.20;99165.97;2616442;28;20110;-79
2022/10/09 13:10:47;;;;;;;6.85;1.45;;;;;;;19.95;42.63;99160.84;2615854;28;20060;-80
2022/10/09 13:12:14;;;;;;;2.75;1.48;;;;;;;20.23;40.35;99158.44;2616109;28;20056;-79
2022/10/09 13:13:30;;;;;;;5.28;1.60;;;;;;;20.76;39.74;99148.31;2615867;28;20069;-79
2022/10/09 13:14:57;;;;;;;1.80;1.00;;;;;;;21.07;38.53;99153.63;2616315;28;20341;-80
2022/10/09 13:16:13;;;;;;;1.95;1.10;;;;;;;20.03;38.73;99152.44;2616598;28;20131;-79
2022/10/09 13:17:37;;;;;;;2.67;1.00;;;;;;;20.77;39.25;99149.16;2616457;28;20044;-79
2022/10/09 13:18:58;;;;;;;3.63;1.35;;;;;;;21.20;38.14;99135.97;2617139;28;20052;-79
2022/10/09 13:20:14;;;;;;;3.67;1.55;;;;;;;21.32;37.31;99142.38;2616807;28;20394;-79
2022/10/09 13:21:32;;;;;;;3.05;1.20;;;;;;;21.76;37.02;99139.72;2616608;28;20049;-80
2022/10/09 13:22:59;;;;;;;3.00;1.30;;;;;;;22.12;36.77;99143.63;2616727;28;20056;-79
2022/10/09 13:24:14;;;;;;;5.90;1.25;;;;;;;21.32;36.29;99139.72;2617007;28;20662;-80
2022/10/09 13:25:39;;;;;;;1.42;1.23;;;;;;;21.52;36.20;99134.94;2616782;28;20045;-79
2022/10/09 13:26:55;;;;;;;4.10;1.45;;;;;;;21.95;36.72;99131.41;2617052;28;20087;-80
2022/10/09 13:28:18;;;;;;;4.65;1.27;;;;;;;20.45;38.02;99137.66;2616580;28;20060;-79
2022/10/09 13:29:34;;;;;;;4.10;1.30;;;;;;;21.15;36.77;99124.75;2616541;28;20094;-79
2022/10/09 13:30:49;;;;;;;2.28;1.00;;;;;;;20.03;39.32;99123.22;2617032;28;20402;-78
2022/10/09 13:32:07;;;;;;;5.28;1.77;;;;;;;20.08;39.12;99121.13;2616771;28;20049;-79
2022/10/09 13:33:23;;;;;;;5.10;1.50;;;;;;;21.39;38.17;99127.72;2612032;28;20098;-80
2022/10/09 13:34:38;;;;;;;2.88;1.05;;;;;;;21.95;36.49;99124.25;2616317;28;20048;-80
2022/10/09 13:35:54;;;;;;;3.53;1.40;;;;;;;21.20;36.73;99124.47;2616775;28;20479;-80
2022/10/09 13:37:16;;;;;;;4.60;1.48;;;;;;;21.49;37.62;99124.47;2616495;28;20127;-80
2022/10/09 13:38:31;;;;;;;3.40;1.10;;;;;;;22.39;35.38;99114.31;2616423;28;20063;-79
2022/10/09 13:39:47;;;;;;;3.70;1.17;;;;;;;22.66;35.41;99108.13;2616699;28;21066;-82
2022/10/09 13:41:02;;;;;;;6.78;1.30;;;;;;;22.80;34.14;99104.50;2616802;28;20048;-84
2022/10/09 13:42:19;;;;;;;3.42;1.17;;;;;;;23.31;35.30;99102.84;2616234;28;20086;-79
2022/10/09 13:43:35;;;;;;;4.68;1.30;;;;;;;23.63;33.93;99112.22;2616734;28;20105;-79
2022/10/09 13:44:50;;;;;;;3.70;1.30;;;;;;;23.86;33.35;99104.31;2616885;28;20048;-81
2022/10/09 13:46:06;;;;;;;4.05;1.38;;;;;;;24.61;31.88;99103.28;2616758;28;20048;-80
2022/10/09 13:47:22;;;;;;;1.92;1.17;;;;;;;23.50;32.86;99101.53;2616778;28;20171;-81
2022/10/09 13:48:38;;;;;;;2.70;1.30;;;;;;;23.79;33.00;99098.56;2615749;28;20053;-79
2022/10/09 13:49:53;;;;;;;3.28;1.20;;;;;;;22.79;33.70;99099.28;2617680;28;20585;-80
2022/10/09 13:51:10;;;;;;;4.50;1.50;;;;;;;22.44;33.91;99098.84;2616182;28;20044;-79
2022/10/09 13:52:26;;;;;;;4.45;1.40;;;;;;;20.83;36.78;99104.44;2615254;28;20048;-79
2022/10/09 13:53:41;;;;;;;3.15;1.20;;;;;;;21.27;36.72;99102.69;2615119;28;20048;-79
2022/10/09 13:54:57;;;;;;;4.53;1.50;;;;;;;22.49;34.63;99095.03;2615681;28;20052;-80
2022/10/09 13:56:12;;;;;;;3.25;1.60;;;;;;;23.08;33.02;99099.09;2615292;28;20048;-80
2022/10/09 13:57:28;;;;;;;3.35;1.33;;;;;;;22.74;34.57;99098.72;2615432;28;20510;-80
2022/10/09 13:58:43;;;;;;;3.88;1.23;;;;;;;21.61;35.25;99096.19;2615727;28;20478;-79
2022/10/09 13:59:59;;;;;;;5.32;1.58;;;;;;;22.40;34.92;99094.69;2616103;28;20055;-80
2022/10/09 14:01:14;;;;;;;3.92;1.20;;;;;;;22.96;34.01;99088.28;2615668;28;20044;-81
2022/10/09 14:02:30;;;;;;;3.75;1.30;;;;;;;23.11;32.53;99090.84;2615664;28;20048;-80
2022/10/09 14:03:46;;;;;;;3.72;1.40;;;;;;;22.94;33.15;99097.34;2615808;28;20052;-79
2022/10/09 14:05:01;;;;;;;3.17;1.40;;;;;;;22.82;33.67;99096.38;2616080;28;20044;-79
2022/10/09 14:06:17;;;;;;;3.85;1.50;;;;;;;22.94;33.86;99094.69;2615636;28;20056;-80
2022/10/09 14:07:34;;;;;;;2.55;1.27;;;;;;;22.87;33.79;99091.56;2615703;28;20051;-81
2022/10/09 14:08:49;;;;;;;3.75;1.67;;;;;;;23.54;32.48;99084.31;2615686;28;20383;-81
2022/10/09 14:10:05;;;;;;;5.82;1.50;;;;;;;24.25;33.35;99083.66;2615526;28;20044;-82
2022/10/09 14:11:20;;;;;;;3.13;1.45;;;;;;;24.18;31.29;99087.78;2615163;28;20048;-78
2022/10/09 14:12:36;;;;;;;4.60;1.60;;;;;;;23.49;32.46;99084.66;2616418;28;20045;-79
2022/10/09 14:13:52;;;;;;;4.15;1.40;;;;;;;23.18;32.69;99080.59;2616488;28;20053;-79
2022/10/09 14:15:08;;;;;;;3.67;1.83;;;;;;;23.92;31.83;99085.19;2616381;28;20058;-83
2022/10/09 14:16:27;;;;;;;3.30;1.20;;;;;;;24.32;32.31;99081.38;2616662;28;20102;-79
2022/10/09 14:17:43;;;;;;;3.78;1.50;;;;;;;24.18;31.44;99083.28;2616355;28;20052;-79
2022/10/09 14:19:01;;;;;;;3.55;1.27;;;;;;;24.33;30.93;99073.25;2616379;28;20411;-81
2022/10/09 14:20:16;;;;;;;2.83;1.23;;;;;;;23.57;31.63;99070.72;2616349;28;20522;-79
2022/10/09 14:21:32;;;;;;;2.17;1.05;;;;;;;23.64;32.31;99065.81;2616489;28;20048;-81
2022/10/09 14:22:48;;;;;;;2.30;1.13;;;;;;;23.48;32.42;99071.38;2616615;28;20064;-80
2022/10/09 14:24:04;;;;;;;4.18;1.17;;;;;;;23.80;31.54;99066.38;2616592;28;20045;-80
2022/10/09 14:25:19;;;;;;;3.28;1.20;;;;;;;21.95;34.47;99070.94;2616023;28;20041;-80
2022/10/09 14:26:36;;;;;;;2.85;1.42;;;;;;;21.00;36.10;99076.81;2616660;28;20594;-79
2022/10/09 14:27:52;;;;;;;3.80;1.20;;;;;;;20.73;36.70;99066.00;2616612;28;20482;-79
2022/10/09 14:29:08;;;;;;;3.47;1.10;;;;;;;19.00;39.84;99072.94;2616509;28;20056;-79
2022/10/09 14:30:23;;;;;;;4.85;1.27;;;;;;;20.25;38.00;99061.69;2616606;28;20059;-81
2022/10/09 14:31:39;;;;;;;2.45;1.20;;;;;;;22.05;34.98;99057.84;2616316;28;20060;-80
2022/10/09 14:32:55;;;;;;;4.72;1.38;;;;;;;22.10;34.51;99054.88;2616500;28;20057;-81
2022/10/09 14:34:12;;;;;;;3.75;1.20;;;;;;;20.77;36.26;99056.91;2615718;28;20053;-81
2022/10/09 14:35:29;;;;;;;3.90;1.50;;;;;;;20.23;37.24;99058.28;2615902;28;20076;-81
2022/10/09 14:36:44;;;;;;;2.03;1.30;;;;;;;18.84;40.44;99061.38;2616551;28;20135;-81
2022/10/09 14:38:00;;;;;;;4.85;1.58;;;;;;;19.60;38.66;99058.22;2615897;28;20144;-81
2022/10/09 14:39:16;;;;;;;7.38;1.40;;;;;;;20.87;36.13;99055.41;2615690;28;20118;-81
2022/10/09 14:40:31;;;;;;;3.38;1.45;;;;;;;21.36;37.77;99055.13;2615837;28;20056;-82
2022/10/09 14:41:47;;;;;;;2.20;1.00;;;;;;;21.99;35.05;99061.78;2616028;28;20040;-81
2022/10/09 14:43:03;;;;;;;2.90;1.50;;;;;;;22.03;35.20;99064.25;2615805;28;20122;-82
2022/10/09 14:44:18;;;;;;;4.38;1.40;;;;;;;22.48;33.97;99059.50;2616268;28;20851;-81
2022/10/09 14:45:34;;;;;;;3.22;1.30;;;;;;;21.62;35.62;99060.59;2616354;28;20471;-84
2022/10/09 14:46:49;;;;;;;3.70;1.30;;;;;;;20.95;36.28;99054.09;2616337;28;20045;-82
2022/10/09 14:48:05;;;;;;;3.72;1.60;;;;;;;21.55;35.41;99058.34;2616159;28;20507;-82
2022/10/09 14:49:20;;;;;;;2.25;1.40;;;;;;;21.98;35.89;99060.06;2615545;28;20056;-82
2022/10/09 14:50:36;;;;;;;10.82;1.80;;;;;;;21.85;36.28;99057.34;2615704;28;20056;-82
2022/10/09 14:51:53;;;;;;;3.05;1.25;;;;;;;21.59;35.81;99053.69;2615366;28;20072;-80
2022/10/09 14:53:09;;;;;;;3.10;1.30;;;;;;;20.96;37.22;99045.16;2615323;28;20166;-87
2022/10/09 14:54:24;;;;;;;4.15;1.40;;;;;;;21.10;36.49;99050.47;2615537;28;20182;-82
2022/10/09 14:55:40;;;;;;;3.67;1.35;;;;;;;21.62;36.89;99055.28;2615720;28;20044;-81
2022/10/09 14:56:55;;;;;;;7.05;1.50;;;;;;;20.15;38.25;99045.44;2615781;28;20044;-81
2022/10/09 14:58:11;;;;;;;2.45;1.25;;;;;;;20.47;37.98;99044.50;2615123;28;20132;-81
2022/10/09 14:59:26;;;;;;;3.03;1.35;;;;;;;21.03;36.70;99047.34;2615575;28;20491;-80
2022/10/09 15:00:46;;;;;;;4.38;1.35;;;;;;;19.88;39.59;99038.06;2614912;28;20518;-79
2022/10/09 15:02:01;;;;;;;4.30;1.35;;;;;;;20.78;38.63;99044.44;2615467;28;20045;-80
2022/10/09 15:03:17;;;;;;;3.83;1.42;;;;;;;20.93;37.30;99042.69;2613692;28;20064;-80
2022/10/09 15:04:33;;;;;;;3.97;1.20;;;;;;;21.35;36.35;99034.78;2615239;28;20589;-80
2022/10/09 15:05:49;;;;;;;2.85;1.45;;;;;;;20.82;37.54;99038.03;2614240;28;20044;-81
2022/10/09 15:07:04;;;;;;;2.00;0.90;;;;;;;21.31;36.17;99034.97;2615150;28;20047;-80
2022/10/09 15:08:20;;;;;;;2.13;1.00;;;;;;;21.70;35.34;99035.19;2614221;28;20076;-81
2022/10/09 15:09:36;;;;;;;2.53;1.30;;;;;;;21.67;35.55;99035.41;2614068;28;20439;-85
2022/10/09 15:10:52;;;;;;;3.97;1.02;;;;;;;21.53;36.23;99041.59;2612153;28;20052;-80
2022/10/09 15:12:08;;;;;;;5.20;1.40;;;;;;;22.06;35.37;99026.72;2614539;28;20037;-80
2022/10/09 15:13:24;;;;;;;2.88;1.20;;;;;;;22.20;34.11;99031.13;2615295;28;20048;-79
2022/10/09 15:14:39;;;;;;;1.90;1.15;;;;;;;21.69;35.33;99035.31;2614257;28;20407;-78
2022/10/09 15:15:59;;;;;;;2.78;1.20;;;;;;;19.98;38.09;99033.09;2616830;28;20067;-82
2022/10/09 15:17:15;;;;;;;1.75;0.90;;;;;;;19.75;38.96;99032.56;2617906;28;20595;-79
2022/10/09 15:18:31;;;;;;;1.95;1.00;;;;;;;20.64;38.45;99031.97;2617212;28;20448;-84
2022/10/09 15:19:46;;;;;;;4.60;1.00;;;;;;;20.59;37.67;99029.59;2617875;28;20503;-79
2022/10/09 15:21:02;;;;;;;2.75;1.02;;;;;;;20.75;36.57;99032.19;2617667;28;20048;-79
2022/10/09 15:22:18;;;;;;;4.25;1.20;;;;;;;20.94;36.12;99031.09;2617764;28;20052;-80
2022/10/09 15:23:34;;;;;;;2.55;0.85;;;;;;;20.44;37.15;99029.56;2617538;28;20052;-79
2022/10/09 15:24:49;;;;;;;2.20;1.05;;;;;;;20.70;37.43;99023.63;2617943;28;20048;-80
2022/10/09 15:26:05;;;;;;;3.60;1.15;;;;;;;20.46;38.10;99022.34;2618079;28;20040;-79
2022/10/09 15:27:21;;;;;;;2.30;1.10;;;;;;;21.13;36.72;99025.47;2618115;28;20315;-83
2022/10/09 15:28:38;;;;;;;2.83;1.02;;;;;;;21.44;35.50;99026.19;2617726;28;20045;-80
2022/10/09 15:29:53;;;;;;;2.20;0.98;;;;;;;19.94;38.35;99023.59;2617487;28;20059;-80
2022/10/09 15:31:22;;;;;;;1.63;1.00;;;;;;;19.46;39.18;99026.25;2617728;28;20048;-78
2022/10/09 15:32:37;;;;;;;2.60;1.10;;;;;;;19.68;38.64;99025.03;2617216;28;20079;-78
2022/10/09 15:33:56;;;;;;;2.30;1.23;;;;;;;20.22;37.27;99023.78;2599686;28;20040;-78
2022/10/09 15:35:11;;;;;;;5.00;1.45;;;;;;;19.86;38.26;99025.81;2604068;28;20056;-80
2022/10/09 15:36:29;;;;;;;6.43;1.80;;;;;;;20.36;37.40;99018.50;2604977;28;20041;-79
2022/10/09 15:37:45;;;;;;;3.42;1.50;;;;;;;20.07;37.89;99017.59;2604530;28;20045;-81
2022/10/09 15:39:04;;;;;;;2.80;1.40;;;;;;;20.48;37.06;99018.72;2603817;28;20403;-79
2022/10/09 15:40:20;;;;;;;6.40;1.58;;;;;;;20.71;36.46;99020.88;2604684;28;20056;-79
2022/10/09 15:41:38;;;;;;;4.97;1.58;;;;;;;20.31;37.41;99023.25;2579593;28;20792;-79
2022/10/09 15:42:53;;;;;;;4.25;1.67;;;;;;;20.58;36.66;99019.91;2555616;28;20094;-80
2022/10/09 15:44:18;;;;;;;3.85;1.60;;;;;;;20.23;37.49;99020.19;2603397;28;20527;-79
2022/10/09 15:45:33;;;;;;;3.03;1.70;;;;;;;20.40;36.95;99014.75;2602805;28;20041;-79
2022/10/09 15:46:49;;;;;;;5.03;1.73;;;;;;;19.43;39.29;99015.81;2602260;28;20098;-80
2022/10/09 15:48:05;;;;;;;3.78;1.42;;;;;;;19.85;39.12;99016.13;2603469;28;20044;-79
2022/10/09 15:49:21;;;;;;;3.33;1.48;;;;;;;19.47;39.23;99026.16;2605637;28;20454;-79
2022/10/09 15:50:36;;;;;;;3.47;1.50;;;;;;;19.65;39.37;99014.59;2603204;28;20264;-80
2022/10/09 15:51:52;;;;;;;2.55;1.55;;;;;;;18.92;41.38;99017.56;2601656;28;20076;-80
2022/10/09 15:53:13;;;;;;;2.95;1.42;;;;;;;18.84;40.72;99019.78;2601757;28;20050;-79
2022/10/09 15:54:29;;;;;;;5.95;1.60;;;;;;;19.28;39.36;99015.72;2605456;28;20103;-79
2022/10/09 15:55:47;;;;;;;3.75;1.67;;;;;;;18.02;43.04;99021.25;2602521;28;20068;-79
2022/10/09 15:57:02;;;;;;;4.95;1.35;;;;;;;17.45;44.20;99024.84;2602747;28;20056;-79
2022/10/09 15:58:19;;;;;;;3.03;1.80;;;;;;;17.99;43.03;99016.09;2601228;28;20045;-83
2022/10/09 15:59:37;;;;;;;4.03;1.80;;;;;;;17.84;43.13;99010.63;2600915;28;20503;-79
2022/10/09 16:00:52;;;;;;;6.07;1.60;;;;;;;17.28;44.97;99021.19;2605138;28;20049;-79
2022/10/09 16:02:09;;;;;;;5.80;2.17;;;;;;;16.07;48.50;99021.16;2601871;28;20053;-80
2022/10/09 16:03:24;;;;;;;5.05;2.13;;;;;;;16.75;47.59;99020.88;2603251;28;20057;-79
2022/10/09 16:04:40;;;;;;;6.57;2.35;;;;;;;16.58;46.85;99019.00;2603273;28;20064;-79
2022/10/09 16:05:58;;;;;;;4.40;2.40;;;;;;;16.32;48.69;99020.09;2607061;28;20056;-81
2022/10/09 16:07:14;;;;;;;2.53;1.67;;;;;;;16.42;47.35;99015.31;2605971;28;20041;-79
2022/10/09 16:08:29;;;;;;;3.08;1.50;;;;;;;16.24;47.69;99016.00;2603295;28;20064;-79
2022/10/09 16:09:45;;;;;;;4.07;1.77;;;;;;;15.25;51.11;99014.63;2601883;28;20053;-79
2022/10/09 16:11:07;;;;;;;4.15;1.90;;;;;;;15.14;51.71;99014.19;2602969;28;20073;-80
2022/10/09 16:12:23;;;;;;;4.30;2.35;;;;;;;14.64;54.72;99023.81;2601688;28;20099;-79
2022/10/09 16:13:40;;;;;;;4.75;3.15;;;;;;;13.99;58.65;99018.97;2603266;28;20054;-79
2022/10/09 16:14:56;;;;;;;11.35;4.35;;;;;;;13.90;58.61;99019.28;2603136;28;20041;-81
2022/10/09 16:16:18;;;;;;;9.88;5.15;;;;;;;13.70;60.43;99019.03;2603873;28;20400;-84
2022/10/09 16:17:33;;;;;;;9.82;5.03;;;;;;;13.62;60.77;99023.66;2607278;28;20491;-80
2022/10/09 16:18:49;;;;;;;10.55;4.50;;;;;;;13.67;61.53;99021.72;2602340;28;20091;-80
2022/10/09 16:20:05;;;;;;;16.08;5.55;;;;;;;13.28;64.22;99027.28;2601934;28;20048;-80
2022/10/09 16:21:27;;;;;;;11.05;5.60;;;;;;;12.99;66.30;99021.09;2604224;28;20526;-80
2022/10/09 16:22:43;;;;;;;14.02;5.38;;;;;;;12.95;66.26;99024.72;2600822;28;20053;-83
2022/10/09 16:23:59;;;;;;;10.80;5.72;;;;;;;12.85;68.05;99026.75;2601952;28;20500;-78
2022/10/09 16:25:15;;;;;;;9.52;5.05;;;;;;;12.73;68.12;99027.97;2607249;28;20049;-80
2022/10/09 16:26:31;;;;;;;10.05;5.65;;;;;;;12.51;69.65;99028.53;2602399;28;20053;-79
2022/10/09 16:27:46;;;;;;;10.88;5.80;;;;;;;12.35;71.53;99024.59;2600757;28;20049;-79
2022/10/09 16:29:02;;;;;;;8.68;4.80;;;;;;;12.26;71.83;99026.53;2601100;28;20937;-79
2022/10/09 16:30:18;;;;;;;6.68;3.70;;;;;;;12.09;73.14;99031.34;2607002;28;20060;-79
2022/10/09 16:31:34;;;;;;;12.48;4.95;;;;;;;12.03;74.76;99034.13;2602254;28;20072;-78
2022/10/09 16:32:50;;;;;;;15.00;6.88;;;;;;;12.15;73.00;99028.56;2600084;28;20476;-80
2022/10/09 16:34:06;;;;;;;19.30;9.15;;;;;;;12.02;74.25;99032.41;2604246;28;20132;-80
2022/10/09 16:35:23;;;;;;;17.13;8.30;;;;;;;11.83;77.27;99028.44;2603690;28;20067;-79
2022/10/09 16:36:39;;;;;;;22.65;10.20;;;;;;;11.79;76.44;99029.38;2604376;28;20500;-80
2022/10/09 16:37:54;;;;;;;17.48;8.23;;;;;;;11.58;77.79;99033.38;2605378;28;20079;-78
2022/10/09 16:39:10;;;;;;;16.77;6.70;;;;;;;11.53;78.87;99030.88;2600561;28;20512;-79
2022/10/09 16:40:26;;;;;;;11.65;5.47;;;;;;;11.49;79.19;99030.97;2600960;28;20225;-78
2022/10/09 16:41:41;;;;;;;13.18;5.55;;;;;;;11.57;78.34;99042.13;2600286;28;20067;-78
2022/10/09 16:42:58;;;;;;;19.45;7.90;;;;;;;11.37;79.54;99032.97;2598997;28;20045;-78
2022/10/09 16:44:15;;;;;;;19.98;9.20;;;;;;;11.44;79.33;99031.91;2605554;28;20320;-79
2022/10/09 16:45:31;;;;;;;19.13;8.63;;;;;;;11.37;79.00;99030.34;2599685;28;20088;-78